createdAt,value
2022-09-27T00:00:49.947Z,0.80
2022-09-27T00:02:22.708Z,0.70
2022-09-27T00:03:56.336Z,0.65
2022-09-27T00:05:29.080Z,0.65
2022-09-27T00:07:03.100Z,0.80
2022-09-27T00:08:37.034Z,0.70
2022-09-27T00:10:10.030Z,0.60
2022-09-27T00:11:43.598Z,0.75
2022-09-27T00:13:16.280Z,0.60
2022-09-27T00:14:48.960Z,0.70
2022-09-27T00:16:23.478Z,0.60
2022-09-27T00:17:56.253Z,0.75
2022-09-27T00:19:29.351Z,0.70
2022-09-27T00:21:07.393Z,0.60
2022-09-27T00:22:41.418Z,0.90
2022-09-27T00:24:15.415Z,0.80
2022-09-27T00:25:56.693Z,0.63
2022-09-27T00:27:29.474Z,0.70
2022-09-27T00:29:02.158Z,0.70
2022-09-27T00:30:35.039Z,0.70
2022-09-27T00:32:07.794Z,0.70
2022-09-27T00:33:39.532Z,0.70
2022-09-27T00:35:12.210Z,0.80
2022-09-27T00:36:44.889Z,0.60
2022-09-27T00:38:19.230Z,0.60
2022-09-27T00:39:51.904Z,0.70
2022-09-27T00:41:26.914Z,0.60
2022-09-27T00:42:59.706Z,0.60
2022-09-27T00:45:05.820Z,0.68
2022-09-27T00:46:43.022Z,0.85
2022-09-27T00:48:18.209Z,0.70
2022-09-27T00:49:55.717Z,0.80
2022-09-27T00:51:28.690Z,0.80
2022-09-27T00:53:10.523Z,0.82
2022-09-27T00:54:50.205Z,0.77
2022-09-27T00:56:28.233Z,0.80
2022-09-27T00:58:00.684Z,0.83
2022-09-27T00:59:36.744Z,0.90
2022-09-27T01:01:10.689Z,0.80
2022-09-27T01:02:46.530Z,0.80
2022-09-27T01:04:23.973Z,0.80
2022-09-27T01:05:56.878Z,0.80
2022-09-27T01:07:28.745Z,0.90
2022-09-27T01:09:01.592Z,0.90
2022-09-27T01:10:41.591Z,0.83
2022-09-27T01:12:21.850Z,0.85
2022-09-27T01:14:25.388Z,1.10
2022-09-27T01:16:05.534Z,0.90
2022-09-27T01:17:48.722Z,1.20
2022-09-27T01:19:47.796Z,1.10
2022-09-27T01:21:47.104Z,1.10
2022-09-27T01:23:39.532Z,1.10
2022-09-27T01:25:37.102Z,1.10
2022-09-27T01:27:37.439Z,1.20
2022-09-27T01:29:16.804Z,1.23
2022-09-27T01:30:57.606Z,1.30
2022-09-27T01:32:35.859Z,1.50
2022-09-27T01:34:17.188Z,1.40
2022-09-27T01:36:04.343Z,1.40
2022-09-27T01:37:44.067Z,1.70
2022-09-27T01:39:29.718Z,1.70
2022-09-27T01:41:09.675Z,1.50
2022-09-27T01:42:48.513Z,1.50
2022-09-27T01:44:32.419Z,1.50
2022-09-27T01:46:09.683Z,1.60
2022-09-27T01:47:47.034Z,1.50
2022-09-27T01:49:36.790Z,1.77
2022-09-27T01:51:11.659Z,1.90
2022-09-27T01:52:49.334Z,1.60
2022-09-27T01:54:28.025Z,1.52
2022-09-27T01:56:05.004Z,1.67
2022-09-27T01:57:41.662Z,1.70
2022-09-27T01:59:18.179Z,1.60
2022-09-27T02:00:53.846Z,1.50
2022-09-27T02:02:32.074Z,1.55
2022-09-27T02:04:08.494Z,1.50
2022-09-27T02:05:46.580Z,1.60
2022-09-27T02:07:24.800Z,1.63
2022-09-27T02:09:00.325Z,1.52
2022-09-27T02:10:38.613Z,1.55
2022-09-27T02:12:13.943Z,1.60
2022-09-27T02:13:53.421Z,1.60
2022-09-27T02:15:28.234Z,1.42
2022-09-27T02:17:09.755Z,1.45
2022-09-27T02:18:52.701Z,1.50
2022-09-27T02:20:31.087Z,1.40
2022-09-27T02:22:15.221Z,1.50
2022-09-27T02:23:51.021Z,1.40
2022-09-27T02:25:29.083Z,1.40
2022-09-27T02:27:09.064Z,1.60
2022-09-27T02:28:46.667Z,1.50
2022-09-27T02:30:20.021Z,1.50
2022-09-27T02:31:52.943Z,1.60
2022-09-27T02:33:30.437Z,2.10
2022-09-27T02:35:09.457Z,1.70
2022-09-27T02:36:42.254Z,1.40
2022-09-27T02:38:15.005Z,1.40
2022-09-27T02:39:47.960Z,1.63
2022-09-27T02:41:22.194Z,1.85
2022-09-27T02:42:54.161Z,1.67
2022-09-27T02:44:28.522Z,1.50
2022-09-27T02:46:18.867Z,1.20
2022-09-27T02:48:05.545Z,1.52
2022-09-27T02:49:49.341Z,1.83
2022-09-27T02:51:44.665Z,1.25
2022-09-27T02:53:26.030Z,1.40
2022-09-27T02:55:08.060Z,1.23
2022-09-27T02:56:51.317Z,1.42
2022-09-27T02:58:35.346Z,1.13
2022-09-27T03:00:09.786Z,1.00
2022-09-27T03:01:52.826Z,1.23
2022-09-27T03:03:34.823Z,0.95
2022-09-27T03:05:11.633Z,1.00
2022-09-27T03:06:48.373Z,0.80
2022-09-27T03:08:21.278Z,0.80
2022-09-27T03:09:55.646Z,0.60
2022-09-27T03:11:28.453Z,0.68
2022-09-27T03:13:00.259Z,0.60
2022-09-27T03:14:32.940Z,0.90
2022-09-27T03:16:05.989Z,0.88
2022-09-27T03:17:37.726Z,0.73
2022-09-27T03:19:10.840Z,0.50
2022-09-27T03:20:43.631Z,0.70
2022-09-27T03:22:17.212Z,0.60
2022-09-27T03:23:50.126Z,0.68
2022-09-27T03:25:22.269Z,0.60
2022-09-27T03:26:54.999Z,0.60
2022-09-27T03:28:29.617Z,0.60
2022-09-27T03:30:02.337Z,0.50
2022-09-27T03:31:35.055Z,0.60
2022-09-27T03:33:06.877Z,0.45
2022-09-27T03:34:39.649Z,0.50
2022-09-27T03:36:12.857Z,0.55
2022-09-27T03:37:47.570Z,0.43
2022-09-27T03:39:20.259Z,0.50
2022-09-27T03:40:53.028Z,0.50
2022-09-27T03:42:25.813Z,0.50
2022-09-27T03:43:59.751Z,0.50
2022-09-27T03:45:32.441Z,0.50
2022-09-27T03:47:05.207Z,0.50
2022-09-27T03:48:37.908Z,0.40
2022-09-27T03:50:11.551Z,0.65
2022-09-27T03:51:44.337Z,0.70
2022-09-27T03:53:18.613Z,0.40
2022-09-27T03:54:51.794Z,0.45
2022-09-27T03:56:24.576Z,0.43
2022-09-27T03:57:57.272Z,0.50
2022-09-27T03:59:29.936Z,0.50
2022-09-27T04:01:02.744Z,0.60
2022-09-27T04:02:35.585Z,0.60
2022-09-27T04:04:11.230Z,0.60
2022-09-27T04:05:43.226Z,0.50
2022-09-27T04:07:17.490Z,0.50
2022-09-27T04:08:51.629Z,0.60
2022-09-27T04:10:24.700Z,0.52
2022-09-27T04:11:57.378Z,0.95
2022-09-27T04:13:30.129Z,1.10
2022-09-27T04:15:02.814Z,1.05
2022-09-27T04:16:35.864Z,0.88
2022-09-27T04:18:07.616Z,0.80
2022-09-27T04:19:40.280Z,1.10
2022-09-27T04:21:12.976Z,0.70
2022-09-27T04:22:46.004Z,0.80
2022-09-27T04:24:20.173Z,1.00
2022-09-27T04:25:52.850Z,0.85
2022-09-27T04:27:25.605Z,0.90
2022-09-27T04:28:58.318Z,1.00
2022-09-27T04:30:31.221Z,1.00
2022-09-27T04:32:03.950Z,0.70
2022-09-27T04:33:36.629Z,0.88
2022-09-27T04:35:28.069Z,0.70
2022-09-27T04:37:00.528Z,0.70
2022-09-27T04:38:33.305Z,0.80
2022-09-27T04:40:08.183Z,0.90
2022-09-27T04:41:41.019Z,0.95
2022-09-27T04:43:13.701Z,1.15
2022-09-27T04:44:45.502Z,0.90
2022-09-27T04:46:18.239Z,0.93
2022-09-27T04:47:51.960Z,0.90
2022-09-27T04:49:24.727Z,0.80
2022-09-27T04:50:57.876Z,0.90
2022-09-27T04:52:31.701Z,0.90
2022-09-27T04:54:04.785Z,0.90
2022-09-27T04:55:38.788Z,0.90
2022-09-27T04:57:12.163Z,0.82
2022-09-27T04:58:44.874Z,0.90
2022-09-27T05:00:17.148Z,0.70
2022-09-27T05:01:50.451Z,0.70
2022-09-27T05:03:23.332Z,0.77
2022-09-27T05:04:57.928Z,1.02
2022-09-27T05:06:30.601Z,0.80
2022-09-27T05:08:03.541Z,0.70
2022-09-27T05:09:35.289Z,0.68
2022-09-27T05:11:09.308Z,0.60
2022-09-27T05:12:41.078Z,0.98
2022-09-27T05:14:14.477Z,0.80
2022-09-27T05:15:46.414Z,0.90
2022-09-27T05:17:20.403Z,0.70
2022-09-27T05:18:53.072Z,0.75
2022-09-27T05:20:26.360Z,0.80
2022-09-27T05:21:59.200Z,0.70
2022-09-27T05:23:31.914Z,0.75
2022-09-27T05:25:05.063Z,0.80
2022-09-27T05:26:39.083Z,0.80
2022-09-27T05:28:11.874Z,0.70
2022-09-27T05:29:44.912Z,0.90
2022-09-27T05:31:17.668Z,0.80
2022-09-27T05:32:50.434Z,0.70
2022-09-27T05:34:23.124Z,0.70
2022-09-27T05:35:56.891Z,0.80
2022-09-27T05:37:29.967Z,0.70
2022-09-27T05:39:02.644Z,0.70
2022-09-27T05:40:42.680Z,1.00
2022-09-27T05:42:17.503Z,0.80
2022-09-27T05:43:50.184Z,0.80
2022-09-27T05:45:24.143Z,0.77
2022-09-27T05:46:57.046Z,0.60
2022-09-27T05:48:30.273Z,0.60
2022-09-27T05:50:03.681Z,0.70
2022-09-27T05:51:36.656Z,0.70
2022-09-27T05:53:10.356Z,0.70
2022-09-27T05:54:43.315Z,0.82
2022-09-27T05:56:17.174Z,0.90
2022-09-27T05:57:59.189Z,0.60
2022-09-27T05:59:31.864Z,0.65
2022-09-27T06:01:07.891Z,0.80
2022-09-27T06:02:40.695Z,0.75
2022-09-27T06:04:13.762Z,0.70
2022-09-27T06:05:51.223Z,1.17
2022-09-27T06:07:24.278Z,0.95
2022-09-27T06:08:57.548Z,0.75
2022-09-27T06:10:31.304Z,0.60
2022-09-27T06:12:04.038Z,0.60
2022-09-27T06:13:38.189Z,0.80
2022-09-27T06:15:12.020Z,0.85
2022-09-27T06:16:45.605Z,0.70
2022-09-27T06:18:18.654Z,0.90
2022-09-27T06:19:51.453Z,0.77
2022-09-27T06:21:24.325Z,0.50
2022-09-27T06:23:03.844Z,0.80
2022-09-27T06:24:36.510Z,0.73
2022-09-27T06:26:09.485Z,0.60
2022-09-27T06:27:41.208Z,0.52
2022-09-27T06:29:15.340Z,0.70
2022-09-27T06:30:50.627Z,0.75
2022-09-27T06:32:23.491Z,0.90
2022-09-27T06:33:56.166Z,0.70
2022-09-27T06:35:31.097Z,0.63
2022-09-27T06:37:03.891Z,0.68
2022-09-27T06:38:36.649Z,0.68
2022-09-27T06:40:10.500Z,0.70
2022-09-27T06:41:43.741Z,0.63
2022-09-27T06:43:19.198Z,0.70
2022-09-27T06:44:54.346Z,0.60
2022-09-27T06:46:27.090Z,0.70
2022-09-27T06:48:02.320Z,0.77
2022-09-27T06:49:35.337Z,0.90
2022-09-27T06:51:08.047Z,0.70
2022-09-27T06:52:48.132Z,0.75
2022-09-27T06:54:20.812Z,0.80
2022-09-27T06:55:53.759Z,0.73
2022-09-27T06:57:40.397Z,0.70
2022-09-27T06:59:30.529Z,0.85
2022-09-27T07:01:04.959Z,0.80
2022-09-27T07:02:38.212Z,0.57
2022-09-27T07:04:13.343Z,0.70
2022-09-27T07:05:56.705Z,0.70
2022-09-27T07:07:29.777Z,0.60
2022-09-27T07:09:02.597Z,0.73
2022-09-27T07:10:37.612Z,0.80
2022-09-27T07:12:10.321Z,0.55
2022-09-27T07:13:43.573Z,0.60
2022-09-27T07:15:16.395Z,0.60
2022-09-27T07:16:50.654Z,0.60
2022-09-27T07:18:23.778Z,0.57
2022-09-27T07:19:56.661Z,0.75
2022-09-27T07:21:29.342Z,0.50
2022-09-27T07:23:02.020Z,0.68
2022-09-27T07:24:34.680Z,0.70
2022-09-27T07:26:10.389Z,0.73
2022-09-27T07:27:43.217Z,0.60
2022-09-27T07:29:16.648Z,0.63
2022-09-27T07:30:49.735Z,0.80
2022-09-27T07:32:24.048Z,0.70
2022-09-27T07:33:56.938Z,0.70
2022-09-27T07:35:30.173Z,0.55
2022-09-27T07:37:05.365Z,0.75
2022-09-27T07:38:38.132Z,0.90
2022-09-27T07:40:11.084Z,0.75
2022-09-27T07:41:44.862Z,0.70
2022-09-27T07:43:19.384Z,0.70
2022-09-27T07:44:52.046Z,0.70
2022-09-27T07:46:25.502Z,0.70
2022-09-27T07:47:59.648Z,0.90
2022-09-27T07:49:32.330Z,0.75
2022-09-27T07:51:07.613Z,0.82
2022-09-27T07:52:41.960Z,0.50
2022-09-27T07:54:14.639Z,1.27
2022-09-27T07:55:52.629Z,0.95
2022-09-27T07:57:25.310Z,0.65
2022-09-27T07:58:58.428Z,0.80
2022-09-27T08:00:31.164Z,0.70
2022-09-27T08:02:04.082Z,0.80
2022-09-27T08:03:38.443Z,0.60
2022-09-27T08:05:12.133Z,1.00
2022-09-27T08:06:44.788Z,1.30
2022-09-27T08:08:18.193Z,0.70
2022-09-27T08:09:50.869Z,1.50
2022-09-27T08:11:23.541Z,2.57
2022-09-27T08:12:56.222Z,0.80
2022-09-27T08:14:29.591Z,0.80
2022-09-27T08:16:03.272Z,0.70
2022-09-27T08:17:35.970Z,0.80
2022-09-27T08:19:11.136Z,0.70
2022-09-27T08:20:43.920Z,0.43
2022-09-27T08:22:16.916Z,0.50
2022-09-27T08:23:49.586Z,0.63
2022-09-27T08:25:24.388Z,0.80
2022-09-27T08:26:57.085Z,0.77
2022-09-27T08:28:30.134Z,0.70
2022-09-27T08:30:03.424Z,0.60
2022-09-27T08:31:36.127Z,0.53
2022-09-27T08:33:09.849Z,0.50
2022-09-27T08:34:43.849Z,0.50
2022-09-27T08:36:16.731Z,0.50
2022-09-27T08:37:54.739Z,0.40
2022-09-27T08:39:27.400Z,1.10
2022-09-27T08:41:05.543Z,0.80
2022-09-27T08:42:47.400Z,0.60
2022-09-27T08:44:28.861Z,0.40
2022-09-27T08:46:10.618Z,0.60
2022-09-27T08:47:46.753Z,0.50
2022-09-27T08:49:23.345Z,0.40
2022-09-27T08:50:58.868Z,0.50
2022-09-27T08:52:39.850Z,0.57
2022-09-27T08:54:19.007Z,0.40
2022-09-27T08:55:53.710Z,0.70
2022-09-27T08:57:26.796Z,0.50
2022-09-27T08:59:05.628Z,0.60
2022-09-27T09:00:38.424Z,0.80
2022-09-27T09:02:19.075Z,1.27
2022-09-27T09:03:54.934Z,0.70
2022-09-27T09:05:31.825Z,0.97
2022-09-27T09:07:15.184Z,0.70
2022-09-27T09:09:03.737Z,0.90
2022-09-27T09:11:07.309Z,0.80
2022-09-27T09:12:48.637Z,0.80
2022-09-27T09:14:34.816Z,0.80
2022-09-27T09:16:15.785Z,0.60
2022-09-27T09:18:01.447Z,0.50
2022-09-27T09:19:48.453Z,0.50
2022-09-27T09:21:29.614Z,0.70
2022-09-27T09:23:26.717Z,0.50
2022-09-27T09:25:15.379Z,0.57
2022-09-27T09:26:57.573Z,0.60
2022-09-27T09:28:43.260Z,0.50
2022-09-27T09:30:22.916Z,0.50
2022-09-27T09:32:04.008Z,0.50
2022-09-27T09:33:40.864Z,0.70
2022-09-27T09:35:17.020Z,0.67
2022-09-27T09:36:57.569Z,1.00
2022-09-27T09:38:39.785Z,0.63
2022-09-27T09:40:21.243Z,0.60
2022-09-27T09:42:08.495Z,0.50
2022-09-27T09:43:46.366Z,0.40
2022-09-27T09:45:23.185Z,0.50
2022-09-27T09:46:59.896Z,0.50
2022-09-27T09:48:40.223Z,0.40
2022-09-27T09:50:18.725Z,0.30
2022-09-27T09:51:56.789Z,0.40
2022-09-27T09:53:41.613Z,0.40
2022-09-27T09:55:20.832Z,0.60
2022-09-27T09:57:03.325Z,0.40
2022-09-27T09:58:41.485Z,0.80
2022-09-27T10:00:16.267Z,0.40
2022-09-27T10:01:49.261Z,0.40
2022-09-27T10:03:22.018Z,0.40
2022-09-27T10:04:54.820Z,0.33
2022-09-27T10:06:29.451Z,0.60
2022-09-27T10:08:05.393Z,0.47
2022-09-27T10:09:40.862Z,0.40
2022-09-27T10:11:21.572Z,0.73
2022-09-27T10:12:54.570Z,0.43
2022-09-27T10:14:28.836Z,0.70
2022-09-27T10:16:06.530Z,0.60
2022-09-27T10:17:43.582Z,0.50
2022-09-27T10:19:20.411Z,0.60
2022-09-27T10:20:57.969Z,0.50
2022-09-27T10:22:36.815Z,0.70
2022-09-27T10:24:17.291Z,0.60
2022-09-27T10:25:54.675Z,0.57
2022-09-27T10:27:27.807Z,0.47
2022-09-27T10:29:16.391Z,0.60
2022-09-27T10:30:56.976Z,0.60
2022-09-27T10:32:36.129Z,0.90
2022-09-27T10:34:20.816Z,0.60
2022-09-27T10:35:53.537Z,0.70
2022-09-27T10:37:26.261Z,0.83
2022-09-27T10:39:00.708Z,3.20
2022-09-27T10:40:35.290Z,1.70
2022-09-27T10:42:23.331Z,3.70
2022-09-27T10:43:56.026Z,1.60
2022-09-27T10:45:31.742Z,1.10
2022-09-27T10:47:09.760Z,0.80
2022-09-27T10:48:42.919Z,0.90
2022-09-27T10:50:46.089Z,1.30
2022-09-27T10:52:18.170Z,2.70
2022-09-27T10:53:50.116Z,2.00
2022-09-27T10:55:25.073Z,3.30
2022-09-27T10:57:01.308Z,4.03
2022-09-27T10:58:37.768Z,2.10
2022-09-27T11:00:24.133Z,1.10
2022-09-27T11:01:58.204Z,1.20
2022-09-27T11:03:32.104Z,1.00
2022-09-27T11:05:13.926Z,1.60
2022-09-27T11:06:48.137Z,1.10
2022-09-27T11:08:29.055Z,1.17
2022-09-27T11:10:03.217Z,1.10
2022-09-27T11:11:36.613Z,0.93
2022-09-27T11:13:15.771Z,0.97
2022-09-27T11:14:56.259Z,1.37
2022-09-27T11:16:41.357Z,1.20
2022-09-27T11:18:23.997Z,1.10
2022-09-27T11:20:16.080Z,1.83
2022-09-27T11:21:56.124Z,2.80
2022-09-27T11:23:47.111Z,2.03
2022-09-27T11:25:32.015Z,2.33
2022-09-27T11:27:19.004Z,1.60
2022-09-27T11:29:02.707Z,1.30
2022-09-27T11:30:45.103Z,1.17
2022-09-27T11:32:29.532Z,1.10
2022-09-27T11:34:17.395Z,1.97
2022-09-27T11:36:00.681Z,2.00
2022-09-27T11:37:43.831Z,2.53
2022-09-27T11:39:23.871Z,1.77
2022-09-27T11:41:17.348Z,1.20
2022-09-27T11:43:21.905Z,1.37
2022-09-27T11:45:34.305Z,1.60
2022-09-27T11:47:15.548Z,1.00
2022-09-27T11:49:11.569Z,1.07
2022-09-27T11:51:05.034Z,1.07
2022-09-27T11:52:51.863Z,1.30
2022-09-27T11:54:38.454Z,1.10
2022-09-27T11:56:21.684Z,1.17
2022-09-27T11:58:03.959Z,1.27
2022-09-27T11:59:58.841Z,1.27
2022-09-27T12:01:40.263Z,1.30
2022-09-27T12:03:42.410Z,1.30
2022-09-27T12:05:25.549Z,1.07
2022-09-27T12:07:05.496Z,1.30
2022-09-27T12:08:50.311Z,1.10
2022-09-27T12:10:23.025Z,1.40
2022-09-27T12:12:00.900Z,1.23
2022-09-27T12:13:38.952Z,1.27
2022-09-27T12:15:17.690Z,1.17
2022-09-27T12:16:52.925Z,1.10
2022-09-27T12:18:31.978Z,1.13
2022-09-27T12:20:11.325Z,1.23
2022-09-27T12:21:44.184Z,1.10
2022-09-27T12:23:20.856Z,0.90
2022-09-27T12:24:53.846Z,1.20
2022-09-27T12:26:30.227Z,1.30
2022-09-27T12:28:09.971Z,1.60
2022-09-27T12:29:45.127Z,1.37
2022-09-27T12:31:30.911Z,1.50
2022-09-27T12:33:10.024Z,1.60
2022-09-27T12:34:50.549Z,3.47
2022-09-27T12:36:30.751Z,2.13
2022-09-27T12:38:10.223Z,1.97
2022-09-27T12:39:50.866Z,1.70
2022-09-27T12:41:25.075Z,1.50
2022-09-27T12:43:05.456Z,1.40
2022-09-27T12:44:40.496Z,1.13
2022-09-27T12:46:23.872Z,1.30
2022-09-27T12:48:09.190Z,1.30
2022-09-27T12:49:56.448Z,1.10
2022-09-27T12:51:37.974Z,1.00
2022-09-27T12:53:16.167Z,0.87
2022-09-27T12:55:08.085Z,0.80
2022-09-27T12:56:52.383Z,0.73
2022-09-27T12:58:48.839Z,0.60
2022-09-27T13:00:25.227Z,0.80
2022-09-27T13:02:22.869Z,0.70
2022-09-27T13:04:21.377Z,0.70
2022-09-27T13:06:31.728Z,1.00
2022-09-27T13:08:27.905Z,1.50
2022-09-27T13:10:21.015Z,1.33
2022-09-27T13:12:03.012Z,1.20
2022-09-27T13:13:37.640Z,2.20
2022-09-27T13:15:17.381Z,1.37
2022-09-27T13:16:51.326Z,1.80
2022-09-27T13:18:35.037Z,1.60
2022-09-27T13:20:38.030Z,1.60
2022-09-27T13:22:40.761Z,1.30
2022-09-27T13:24:41.472Z,1.60
2022-09-27T13:26:24.199Z,1.30
2022-09-27T13:27:56.873Z,0.90
2022-09-27T13:29:33.086Z,1.20
2022-09-27T13:31:07.639Z,1.20
2022-09-27T13:32:40.948Z,1.47
2022-09-27T13:34:41.500Z,2.20
2022-09-27T13:36:30.896Z,2.30
2022-09-27T13:38:06.977Z,1.53
2022-09-27T13:39:39.713Z,1.20
2022-09-27T13:41:18.207Z,1.30
2022-09-27T13:43:17.641Z,2.17
2022-09-27T13:45:03.532Z,1.80
2022-09-27T13:46:37.356Z,1.60
2022-09-27T13:48:16.706Z,1.70
2022-09-27T13:49:54.544Z,1.70
2022-09-27T13:51:38.128Z,1.50
2022-09-27T13:53:23.388Z,2.30
2022-09-27T13:54:58.148Z,1.27
2022-09-27T13:56:51.038Z,2.80
2022-09-27T13:58:47.058Z,1.50
2022-09-27T14:00:22.737Z,2.43
2022-09-27T14:02:00.772Z,1.83
2022-09-27T14:03:37.101Z,2.17
2022-09-27T14:05:18.782Z,1.60
2022-09-27T14:06:56.700Z,1.90
2022-09-27T14:08:34.535Z,1.30
2022-09-27T14:10:13.906Z,2.57
2022-09-27T14:11:53.360Z,1.40
2022-09-27T14:13:27.952Z,1.80
2022-09-27T14:15:02.212Z,1.80
2022-09-27T14:16:37.486Z,2.90
2022-09-27T14:18:14.717Z,1.40
2022-09-27T14:19:49.182Z,1.40
2022-09-27T14:21:34.587Z,1.70
2022-09-27T14:23:07.809Z,1.40
2022-09-27T14:24:47.328Z,1.10
2022-09-27T14:26:24.742Z,1.27
2022-09-27T14:27:58.426Z,2.27
2022-09-27T14:29:34.008Z,2.30
2022-09-27T14:31:08.536Z,2.37
2022-09-27T14:32:48.702Z,1.77
2022-09-27T14:34:21.402Z,1.40
2022-09-27T14:36:11.885Z,1.27
2022-09-27T14:37:46.084Z,1.00
2022-09-27T14:39:23.774Z,1.20
2022-09-27T14:41:00.637Z,1.00
2022-09-27T14:42:36.908Z,1.20
2022-09-27T14:44:17.278Z,1.00
2022-09-27T14:45:53.578Z,1.13
2022-09-27T14:47:27.698Z,1.03
2022-09-27T14:49:13.808Z,1.20
2022-09-27T14:50:56.165Z,1.00
2022-09-27T14:52:32.912Z,1.40
2022-09-27T14:54:11.178Z,1.50
2022-09-27T14:55:46.232Z,1.50
2022-09-27T14:57:18.950Z,1.07
2022-09-27T14:58:56.425Z,1.70
2022-09-27T15:00:32.250Z,1.50
2022-09-27T15:02:16.017Z,1.40
2022-09-27T15:03:49.750Z,1.30
2022-09-27T15:05:25.403Z,1.70
2022-09-27T15:06:58.718Z,1.53
2022-09-27T15:08:33.982Z,1.50
2022-09-27T15:10:14.501Z,1.20
2022-09-27T15:11:52.799Z,0.80
2022-09-27T15:13:27.782Z,1.00
2022-09-27T15:15:01.674Z,1.10
2022-09-27T15:16:35.440Z,1.10
2022-09-27T15:18:33.737Z,0.80
2022-09-27T15:20:22.876Z,0.80
2022-09-27T15:21:57.209Z,0.70
2022-09-27T15:23:35.537Z,0.90
2022-09-27T15:25:19.813Z,1.70
2022-09-27T15:26:52.744Z,1.50
2022-09-27T15:28:27.983Z,1.20
2022-09-27T15:30:00.928Z,1.20
2022-09-27T15:31:35.745Z,0.80
2022-09-27T15:33:20.010Z,0.87
2022-09-27T15:34:53.210Z,1.00
2022-09-27T15:36:51.637Z,0.90
2022-09-27T15:38:27.826Z,1.00
2022-09-27T15:40:42.996Z,0.80
2022-09-27T15:42:17.815Z,0.80
2022-09-27T15:43:52.741Z,0.90
2022-09-27T15:45:29.143Z,1.20
2022-09-27T15:47:01.876Z,1.40
2022-09-27T15:48:37.639Z,1.20
2022-09-27T15:50:33.009Z,1.37
2022-09-27T15:52:07.686Z,1.37
2022-09-27T15:53:46.486Z,1.13
2022-09-27T15:55:20.696Z,0.90
2022-09-27T15:56:56.890Z,1.20
2022-09-27T15:58:30.289Z,0.80
2022-09-27T16:00:03.728Z,0.90
2022-09-27T16:01:36.444Z,1.00
2022-09-27T16:03:10.766Z,0.97
2022-09-27T16:04:43.454Z,0.93
2022-09-27T16:06:16.211Z,0.80
2022-09-27T16:07:48.901Z,0.83
2022-09-27T16:09:23.129Z,0.70
2022-09-27T16:10:57.146Z,0.83
2022-09-27T16:12:31.215Z,0.80
2022-09-27T16:14:03.887Z,1.00
2022-09-27T16:15:37.708Z,0.97
2022-09-27T16:17:11.682Z,1.10
2022-09-27T16:18:44.528Z,1.10
2022-09-27T16:20:23.091Z,1.20
2022-09-27T16:21:55.775Z,1.10
2022-09-27T16:23:28.458Z,1.70
2022-09-27T16:25:01.437Z,1.10
2022-09-27T16:26:34.194Z,1.30
2022-09-27T16:28:09.748Z,1.17
2022-09-27T16:29:44.552Z,1.00
2022-09-27T16:31:18.185Z,0.90
2022-09-27T16:32:52.042Z,1.10
2022-09-27T16:34:24.808Z,1.20
2022-09-27T16:35:57.517Z,1.00
2022-09-27T16:37:31.153Z,1.00
2022-09-27T16:39:05.613Z,1.00
2022-09-27T16:40:38.740Z,0.80
2022-09-27T16:42:11.536Z,0.90
2022-09-27T16:43:46.094Z,0.97
2022-09-27T16:45:19.715Z,1.00
2022-09-27T16:46:52.649Z,0.90
2022-09-27T16:48:25.674Z,1.10
2022-09-27T16:50:16.326Z,1.00
2022-09-27T16:52:06.008Z,1.20
2022-09-27T16:53:38.675Z,0.90
2022-09-27T16:55:11.654Z,1.00
2022-09-27T16:56:44.926Z,1.40
2022-09-27T16:58:17.592Z,1.30
2022-09-27T16:59:51.664Z,1.50
2022-09-27T17:01:24.434Z,1.57
2022-09-27T17:02:57.112Z,1.50
2022-09-27T17:04:30.000Z,1.17
2022-09-27T17:06:04.008Z,1.30
2022-09-27T17:07:36.673Z,1.30
2022-09-27T17:09:11.821Z,1.20
2022-09-27T17:10:46.126Z,1.30
2022-09-27T17:12:18.887Z,1.23
2022-09-27T17:13:54.674Z,1.33
2022-09-27T17:15:29.530Z,1.23
2022-09-27T17:17:02.254Z,1.23
2022-09-27T17:18:35.021Z,1.50
2022-09-27T17:20:08.314Z,1.30
2022-09-27T17:21:42.226Z,1.37
2022-09-27T17:23:14.963Z,1.30
2022-09-27T17:24:47.697Z,1.17
2022-09-27T17:26:22.241Z,1.40
2022-09-27T17:27:54.919Z,1.17
2022-09-27T17:29:27.641Z,1.27
2022-09-27T17:31:06.287Z,1.20
2022-09-27T17:32:39.322Z,1.30
2022-09-27T17:34:14.109Z,1.50
2022-09-27T17:35:47.660Z,1.53
2022-09-27T17:37:20.827Z,1.52
2022-09-27T17:38:54.139Z,1.30
2022-09-27T17:40:26.950Z,1.30
2022-09-27T17:41:59.681Z,1.43
2022-09-27T17:43:33.845Z,1.33
2022-09-27T17:45:07.358Z,1.30
2022-09-27T17:46:42.091Z,1.50
2022-09-27T17:48:32.232Z,1.30
2022-09-27T17:50:23.008Z,1.40
2022-09-27T17:51:55.761Z,1.80
2022-09-27T17:53:29.638Z,1.77
2022-09-27T17:55:04.026Z,3.75
2022-09-27T17:56:38.536Z,3.53
2022-09-27T17:58:11.269Z,3.40
2022-09-27T17:59:44.719Z,4.03
2022-09-27T18:01:19.082Z,3.70
2022-09-27T18:02:53.580Z,2.85
2022-09-27T18:04:26.376Z,3.00
2022-09-27T18:05:59.102Z,4.43
2022-09-27T18:07:33.258Z,3.53
2022-09-27T18:09:06.525Z,4.65
2022-09-27T18:10:40.262Z,3.90
2022-09-27T18:12:13.579Z,6.60
2022-09-27T18:13:46.300Z,3.90
2022-09-27T18:15:20.850Z,4.40
2022-09-27T18:16:54.801Z,5.22
2022-09-27T18:18:28.834Z,5.97
2022-09-27T18:20:02.319Z,4.00
2022-09-27T18:21:35.833Z,3.40
2022-09-27T18:23:08.509Z,3.60
2022-09-27T18:24:41.243Z,3.22
2022-09-27T18:26:14.074Z,3.20
2022-09-27T18:27:49.792Z,2.70
2022-09-27T18:29:22.650Z,2.70
2022-09-27T18:30:56.191Z,2.90
2022-09-27T18:32:28.881Z,2.55
2022-09-27T18:34:03.857Z,2.70
2022-09-27T18:35:36.524Z,2.90
2022-09-27T18:37:09.268Z,2.95
2022-09-27T18:38:42.590Z,3.03
2022-09-27T18:40:27.920Z,2.88
2022-09-27T18:42:09.846Z,3.03
2022-09-27T18:43:43.309Z,3.33
2022-09-27T18:45:16.072Z,3.65
2022-09-27T18:46:49.836Z,2.83
2022-09-27T18:48:22.674Z,2.65
2022-09-27T18:49:56.682Z,2.70
2022-09-27T18:51:30.861Z,2.90
2022-09-27T18:53:03.672Z,3.40
2022-09-27T18:54:38.275Z,2.70
2022-09-27T18:56:12.720Z,3.38
2022-09-27T18:57:46.547Z,6.57
2022-09-27T18:59:20.644Z,6.53
2022-09-27T19:00:53.339Z,4.30
2022-09-27T19:02:26.158Z,4.65
2022-09-27T19:03:59.098Z,4.50
2022-09-27T19:05:33.336Z,4.35
2022-09-27T19:07:08.011Z,4.72
2022-09-27T19:08:40.966Z,5.90
2022-09-27T19:10:14.519Z,4.88
2022-09-27T19:11:47.305Z,2.83
2022-09-27T19:13:23.076Z,3.10
2022-09-27T19:14:57.845Z,1.98
2022-09-27T19:16:31.483Z,2.00
2022-09-27T19:18:04.440Z,1.60
2022-09-27T19:19:37.148Z,1.55
2022-09-27T19:21:13.609Z,1.60
2022-09-27T19:22:46.420Z,1.25
2022-09-27T19:24:19.549Z,1.27
2022-09-27T19:25:52.249Z,1.50
2022-09-27T19:27:24.950Z,1.50
2022-09-27T19:28:58.749Z,1.40
2022-09-27T19:30:31.418Z,1.40
2022-09-27T19:32:04.261Z,1.20
2022-09-27T19:33:37.787Z,1.30
2022-09-27T19:35:11.652Z,1.63
2022-09-27T19:36:45.673Z,1.45
2022-09-27T19:38:18.346Z,1.20
2022-09-27T19:39:55.276Z,1.00
2022-09-27T19:41:28.682Z,1.20
2022-09-27T19:43:01.348Z,1.20
2022-09-27T19:44:34.088Z,1.20
2022-09-27T19:46:08.081Z,1.20
2022-09-27T19:47:40.847Z,1.40
2022-09-27T19:49:14.186Z,1.40
2022-09-27T19:50:56.343Z,1.40
2022-09-27T19:52:30.491Z,1.40
2022-09-27T19:54:04.100Z,1.40
2022-09-27T19:55:36.867Z,1.50
2022-09-27T19:57:09.562Z,1.50
2022-09-27T19:58:43.245Z,1.38
2022-09-27T20:00:16.172Z,1.48
2022-09-27T20:01:49.222Z,1.30
2022-09-27T20:03:21.947Z,1.27
2022-09-27T20:04:55.079Z,1.40
2022-09-27T20:06:27.751Z,1.50
2022-09-27T20:08:02.264Z,1.40
2022-09-27T20:09:35.907Z,1.23
2022-09-27T20:11:10.529Z,1.38
2022-09-27T20:12:45.629Z,1.45
2022-09-27T20:14:18.512Z,1.48
2022-09-27T20:15:50.780Z,1.65
2022-09-27T20:17:23.572Z,1.35
2022-09-27T20:18:57.949Z,1.40
2022-09-27T20:20:30.636Z,1.50
2022-09-27T20:22:03.319Z,1.60
2022-09-27T20:23:38.021Z,1.40
2022-09-27T20:25:11.110Z,1.50
2022-09-27T20:26:44.625Z,1.40
2022-09-27T20:28:16.398Z,1.30
2022-09-27T20:29:49.118Z,1.38
2022-09-27T20:31:23.439Z,1.50
2022-09-27T20:33:10.128Z,1.50
2022-09-27T20:34:42.814Z,1.33
2022-09-27T20:36:15.962Z,1.70
2022-09-27T20:37:48.617Z,1.70
2022-09-27T20:39:23.601Z,1.77
2022-09-27T20:40:57.778Z,1.70
2022-09-27T20:42:30.495Z,1.70
2022-09-27T20:44:05.849Z,1.73
2022-09-27T20:45:38.926Z,1.95
2022-09-27T20:47:11.878Z,2.10
2022-09-27T20:48:44.391Z,2.00
2022-09-27T20:50:17.231Z,1.95
2022-09-27T20:51:51.067Z,2.10
2022-09-27T20:53:22.924Z,1.80
2022-09-27T20:54:56.952Z,1.90
2022-09-27T20:56:31.531Z,1.90
2022-09-27T20:58:04.253Z,1.95
2022-09-27T20:59:36.934Z,1.80
2022-09-27T21:01:09.792Z,2.15
2022-09-27T21:02:42.549Z,2.53
2022-09-27T21:04:17.643Z,2.20
2022-09-27T21:05:56.718Z,2.10
2022-09-27T21:07:29.385Z,2.25
2022-09-27T21:09:05.966Z,2.05
2022-09-27T21:10:39.982Z,1.90
2022-09-27T21:12:12.677Z,2.33
2022-09-27T21:13:46.504Z,2.10
2022-09-27T21:15:19.215Z,2.50
2022-09-27T21:16:52.321Z,2.30
2022-09-27T21:18:25.014Z,2.05
2022-09-27T21:19:57.702Z,2.00
2022-09-27T21:21:30.484Z,1.80
2022-09-27T21:23:03.185Z,2.08
2022-09-27T21:24:35.875Z,1.92
2022-09-27T21:26:11.749Z,2.03
2022-09-27T21:27:46.092Z,2.05
2022-09-27T21:29:18.965Z,2.40